地図

経路データ

SID SEASON NUMBER BASIN SUBBASIN NAME ISO_TIME NATURE LAT LON WMO_WIND WMO_PRES WMO_AGENCY TRACK_TYPE DIST2LAND LANDFALL IFLAG USA_AGENCY USA_ATCF_ID USA_LAT USA_LON USA_RECORD USA_STATUS USA_WIND USA_PRES USA_SSHS USA_R34_NE USA_R34_SE USA_R34_SW USA_R34_NW USA_R50_NE USA_R50_SE USA_R50_SW USA_R50_NW USA_R64_NE USA_R64_SE USA_R64_SW USA_R64_NW USA_POCI USA_ROCI USA_RMW USA_EYE TOKYO_LAT TOKYO_LON TOKYO_GRADE TOKYO_WIND TOKYO_PRES TOKYO_R50_DIR TOKYO_R50_LONG TOKYO_R50_SHORT TOKYO_R30_DIR TOKYO_R30_LONG TOKYO_R30_SHORT TOKYO_LAND CMA_LAT CMA_LON CMA_CAT CMA_WIND CMA_PRES HKO_LAT HKO_LON HKO_CAT HKO_WIND HKO_PRES NEWDELHI_LAT NEWDELHI_LON NEWDELHI_GRADE NEWDELHI_WIND NEWDELHI_PRES NEWDELHI_CI NEWDELHI_DP NEWDELHI_POCI REUNION_LAT REUNION_LON REUNION_TYPE REUNION_WIND REUNION_PRES REUNION_TNUM REUNION_CI REUNION_RMW REUNION_R34_NE REUNION_R34_SE REUNION_R34_SW REUNION_R34_NW REUNION_R50_NE REUNION_R50_SE REUNION_R50_SW REUNION_R50_NW REUNION_R64_NE REUNION_R64_SE REUNION_R64_SW REUNION_R64_NW BOM_LAT BOM_LON BOM_TYPE BOM_WIND BOM_PRES BOM_TNUM BOM_CI BOM_RMW BOM_R34_NE BOM_R34_SE BOM_R34_SW BOM_R34_NW BOM_R50_NE BOM_R50_SE BOM_R50_SW BOM_R50_NW BOM_R64_NE BOM_R64_SE BOM_R64_SW BOM_R64_NW BOM_ROCI BOM_POCI BOM_EYE BOM_POS_METHOD BOM_PRES_METHOD NADI_LAT NADI_LON NADI_CAT NADI_WIND NADI_PRES WELLINGTON_LAT WELLINGTON_LON WELLINGTON_WIND WELLINGTON_PRES DS824_LAT DS824_LON DS824_STAGE DS824_WIND DS824_PRES TD9636_LAT TD9636_LON TD9636_STAGE TD9636_WIND TD9636_PRES TD9635_LAT TD9635_LON TD9635_WIND TD9635_PRES TD9635_ROCI NEUMANN_LAT NEUMANN_LON NEUMANN_CLASS NEUMANN_WIND NEUMANN_PRES MLC_LAT MLC_LON MLC_CLASS MLC_WIND MLC_PRES USA_GUST BOM_GUST BOM_GUST_PER REUNION_GUST REUNION_GUST_PER USA_SEAHGT USA_SEARAD_NE USA_SEARAD_SE USA_SEARAD_SW USA_SEARAD_NW STORM_SPEED STORM_DIR
1998253N17150 1998 60 WP MM STELLA 1998-09-10 00:00:00 NR 17.0000 149.600 main 2153 2150 O_____________ jtwc_wp WP081998 17.0000 149.600 25 -1 4 258
1998253N17150 1998 60 WP MM STELLA 1998-09-10 03:00:00 NR 16.9525 149.375 main 2150 2136 P_____________ WP081998 16.9525 149.375 25 -1 5 258
1998253N17150 1998 60 WP MM STELLA 1998-09-10 06:00:00 NR 16.9000 149.100 main 2136 2122 O_____________ jtwc_wp WP081998 16.9000 149.100 25 -1 6 260
1998253N17150 1998 60 WP MM STELLA 1998-09-10 09:00:00 NR 16.8426 148.750 main 2121 2119 P_____________ WP081998 16.8426 148.750 22 -1 7 262
1998253N17150 1998 60 WP MM STELLA 1998-09-10 12:00:00 NR 16.8000 148.400 main 2119 2118 O_____________ jtwc_wp WP081998 16.8000 148.400 20 -1 6 265
1998253N17150 1998 60 WP MM STELLA 1998-09-10 15:00:00 NR 16.7924 148.143 main 2118 2117 P_____________ WP081998 16.7924 148.143 20 -1 5 270
1998253N17150 1998 60 WP MM STELLA 1998-09-10 18:00:00 NR 16.8000 147.900 main 2117 2117 O_____________ jtwc_wp WP081998 16.8000 147.900 20 -1 5 271
1998253N17150 1998 60 WP MM STELLA 1998-09-10 21:00:00 NR 16.8000 147.607 main 2117 2117 P_____________ WP081998 16.8000 147.607 20 -1 6 270
1998253N17150 1998 60 WP MM STELLA 1998-09-11 00:00:00 NR 16.8000 147.300 main 2117 2117 O_____________ jtwc_wp WP081998 16.8000 147.300 20 -1 6 268
1998253N17150 1998 60 WP MM STELLA 1998-09-11 03:00:00 NR 16.7849 147.007 main 2117 2117 P_____________ WP081998 16.7849 147.007 20 -1 6 270
1998253N17150 1998 60 WP MM STELLA 1998-09-11 06:00:00 NR 16.8000 146.700 main 2117 2111 O_____________ jtwc_wp WP081998 16.8000 146.700 20 -1 6 278
1998253N17150 1998 60 WP MM STELLA 1998-09-11 09:00:00 NR 16.8775 146.343 main 2108 2088 P_____________ WP081998 16.8775 146.343 20 -1 7 287
1998253N17150 1998 60 WP MM STELLA 1998-09-11 12:00:00 NR 17.0000 146.000 main 2088 2069 O_____________ jtwc_wp WP081998 17.0000 146.000 20 -1 6 294
1998253N17150 1998 60 WP MM STELLA 1998-09-11 15:00:00 NR 17.1349 145.727 main 2069 2042 P_____________ WP081998 17.1349 145.727 20 -1 6 302
1998253N17150 1998 60 WP MM STELLA 1998-09-11 18:00:00 NR 17.3000 145.500 main 2042 2013 O_____________ jtwc_wp WP081998 17.3000 145.500 20 -1 5 309
1998253N17150 1998 60 WP MM STELLA 1998-09-11 21:00:00 NR 17.4699 145.300 main 2013 1993 P_____________ WP081998 17.4699 145.300 22 -1 4 327
1998253N17150 1998 60 WP MM STELLA 1998-09-12 00:00:00 TS 17.6667 145.250 1002 tokyo main 1993 1938 OO_O__________ jtwc_wp WP081998 17.7000 145.100 25 -1 17.5000 145.700 2 1002 0 0 0 17.7000 145.400 TD 25 1004 7 331
1998253N17150 1998 60 WP MM STELLA 1998-09-12 03:00:00 TS 18.0814 144.950 main 1938 1880 PP_P__________ WP081998 18.0200 144.857 25 -1 18.1728 145.144 2 1002 0 0 18.1127 144.943 TD 25 1004 11 323
1998253N17150 1998 60 WP MM STELLA 1998-09-12 06:00:00 TS 18.5364 144.573 1002 tokyo main 1880 1821 OOOO__________ jtwc_wp WP081998 18.4000 144.600 25 -1 18.7000 144.600 2 1002 0 0 0 18.7000 144.600 1 29 1002 18.5000 144.500 TD 25 1004 11 318
1998253N17150 1998 60 WP MM STELLA 1998-09-12 09:00:00 TS 18.8871 144.194 main 1821 1777 PPPP__________ WP081998 18.7848 144.380 25 -1 18.9950 144.097 2 1002 0 0 18.9502 144.235 1 29 1002 18.8499 144.085 TD 27 1002 10 314
1998253N17150 1998 60 WP MM STELLA 1998-09-12 12:00:00 TS 19.2000 143.847 1002 tokyo main 1773 1729 OOOO__________ jtwc_wp WP081998 19.2000 144.100 25 -1 19.2000 143.700 2 1002 0 0 0 19.2000 143.900 1 29 1002 19.2000 143.700 TD 30 1000 9 316
1998253N17150 1998 60 WP MM STELLA 1998-09-12 15:00:00 TS 19.5399 143.530 main 1729 1675 PPPP__________ WP081998 19.6426 143.680 27 -1 19.4622 143.492 2 1002 0 0 19.4623 143.607 1 29 1002 19.5924 143.342 TD 30 1000 10 320
1998253N17150 1998 60 WP MM STELLA 1998-09-12 18:00:00 TS 19.9250 143.200 1002 tokyo main 1675 1607 OOOO__________ jtwc_wp WP081998 20.1000 143.200 30 -1 19.8000 143.300 2 1002 0 0 0 19.8000 143.300 1 29 1002 20.0000 143.000 TD 30 1000 11 321
1998253N17150 1998 60 WP MM STELLA 1998-09-12 21:00:00 TS 20.3800 142.811 main 1607 1550 PPPP__________ WP081998 20.5499 142.742 30 -1 20.2774 142.953 2 1002 0 0 20.2926 142.900 1 29 1002 20.3999 142.650 TD 32 999 12 321
1998253N17150 1998 60 WP MM STELLA 1998-09-13 00:00:00 TS 20.8500 142.400 1002 tokyo main 1539 1482 OOOO__________ jtwc_wp WP081998 21.0000 142.300 30 -1 20.8000 142.500 2 1002 0 0 0 20.8000 142.500 1 29 1002 20.8000 142.300 TS 35 998 12 319
1998253N17150 1998 60 WP MM STELLA 1998-09-13 03:00:00 TS 21.2832 141.978 main 1482 1425 PPPP__________ WP081998 21.4724 141.878 32 -1 21.2880 141.906 2 1001 0 0 21.1723 142.185 1 29 1001 21.2000 141.942 TS 35 998 11 318
1998253N17150 1998 60 WP MM STELLA 1998-09-13 06:00:00 TS 21.6750 141.600 1000 tokyo main 1425 1382 OOOO__________ jtwc_wp WP081998 21.9000 141.500 35 0 21.7000 141.400 2 1000 0 0 0 21.5000 141.900 1 29 1000 21.6000 141.600 TS 35 998 10 320
1998253N17150 1998 60 WP MM STELLA 1998-09-13 09:00:00 TS 22.0149 141.314 main 1382 1343 PPPP__________ WP081998 22.2224 141.177 40 0 21.9797 141.224 2 999 0 0 21.8651 141.570 1 31 999 21.9924 141.285 TS 35 998 8 325
1998253N17150 1998 60 WP MM STELLA 1998-09-13 12:00:00 TS 22.3250 141.100 998 tokyo main 1343 1308 OOOO__________ jtwc_wp WP081998 22.5000 140.900 45 0 22.2000 141.200 2 998 0 0 0 22.2000 141.300 2 34 998 22.4000 141.000 TS 35 998 7 331
1998253N17150 1998 60 WP MM STELLA 1998-09-13 15:00:00 TS 22.6091 140.965 main 1308 1269 PPPP__________ WP081998 22.7847 140.672 45 0 22.3973 141.202 2 996 0 0 22.4121 141.229 2 34 998 22.8423 140.757 TS 37 996 7 334
1998253N17150 1998 60 WP MM STELLA 1998-09-13 18:00:00 TS 22.9500 140.775 35 994 tokyo main 1259 1203 OOOO__________ jtwc_wp WP081998 23.1000 140.400 45 0 22.7000 141.100 3 35 994 0 3 300 150 0 22.7000 141.100 2 34 998 23.3000 140.500 TS 40 994 10 326
1998253N17150 1998 60 WP MM STELLA 1998-09-13 21:00:00 TS 23.4177 140.377 main 1203 1132 PPPP__________ WP081998 23.4702 139.973 50 0 23.2252 140.718 3 37 993 0 3 300 165 23.2254 140.653 2 36 996 23.7500 140.165 TS 42 992 13 322
1998253N17150 1998 60 WP MM STELLA 1998-09-14 00:00:00 TS 23.9750 139.900 40 992 tokyo main 1122 1045 OOOO__________ jtwc_wp WP081998 23.9000 139.500 55 0 23.9000 140.200 3 40 992 0 3 300 180 0 23.9000 140.100 2 38 995 24.2000 139.800 TS 45 990 14 325
1998253N17150 1998 60 WP MM STELLA 1998-09-14 03:00:00 TS 24.5968 139.469 main 1045 969 PPPP__________ WP081998 24.3923 139.092 55 0 24.6725 139.693 3 42 991 0 3 300 180 24.6723 139.643 2 38 995 24.6499 139.450 TS 45 990 15 328
1998253N17150 1998 60 WP MM STELLA 1998-09-14 06:00:00 TS 25.2000 139.050 45 990 tokyo main 969 903 OOOO__________ jtwc_wp WP081998 24.9000 138.700 55 0 25.4000 139.200 3 45 990 0 3 300 180 0 25.4000 139.200 2 38 995 25.1000 139.100 TS 45 990 13 325
1998253N17150 1998 60 WP MM STELLA 1998-09-14 09:00:00 TS 25.6743 138.635 main 900 849 PPPP__________ WP081998 25.3499 138.300 57 0 25.8949 138.762 3 47 987 0 3 325 190 25.9101 138.720 2 43 992 25.5424 138.757 TS 47 987 12 321
1998253N17150 1998 60 WP MM STELLA 1998-09-14 12:00:00 TS 26.1000 138.250 50 985 tokyo main 849 796 OOOO__________ jtwc_wp WP081998 25.8000 137.900 60 0 26.3000 138.400 4 50 985 0 3 350 200 0 26.3000 138.300 3 48 990 26.0000 138.400 STS 50 985 11 322
1998253N17150 1998 60 WP MM STELLA 1998-09-14 15:00:00 TS 26.5274 137.906 main 796 734 PPPP__________ WP081998 26.2700 137.492 62 0 26.7423 138.127 4 52 982 0 3 350 200 26.6198 138.004 3 51 987 26.4775 138.000 STS 52 980 11 327
1998253N17150 1998 60 WP MM STELLA 1998-09-14 18:00:00 TS 27.0000 137.600 55 980 tokyo main 734 673 OOOO__________ jtwc_wp WP081998 26.8000 137.100 65 1 27.2000 137.900 4 55 980 9 50 50 3 350 200 0 27.0000 137.800 3 54 985 27.0000 137.600 STS 55 975 12 332
1998253N17150 1998 60 WP MM STELLA 1998-09-14 21:00:00 TS 27.5437 137.308 main 673 593 PPPP__________ WP081998 27.3826 136.698 65 1 27.6474 137.664 4 57 977 9 55 55 3 350 225 27.5899 137.649 3 56 982 27.5550 137.220 STS 55 975 13 338
1998253N17150 1998 60 WP MM STELLA 1998-09-15 00:00:00 TS 28.2000 137.050 60 975 tokyo main 593 510 OOOO__________ jtwc_wp WP081998 28.1000 136.400 65 1 28.2000 137.400 4 60 975 9 60 60 3 350 250 0 28.3000 137.500 3 58 980 28.2000 136.900 STS 55 975 15 342
1998253N17150 1998 60 WP MM STELLA 1998-09-15 03:00:00 TS 28.9652 136.777 main 499 408 PPPP__________ WP081998 28.9898 136.253 65 1 28.9184 137.013 4 60 975 9 60 60 3 350 250 29.0127 137.221 3 58 980 28.9400 136.618 STS 55 975 17 347
1998253N17150 1998 60 WP MM STELLA 1998-09-15 06:00:00 TS 29.8500 136.625 60 975 tokyo main 397 299 OOOO__________ jtwc_wp WP081998 30.0000 136.300 65 1 29.8000 136.700 4 60 975 9 60 60 2 350 250 0 29.8000 137.000 3 58 980 29.8000 136.500 STS 55 975 19 357
1998253N17150 1998 60 WP MM STELLA 1998-09-15 09:00:00 TS 30.8147 136.656 60 975 tokyo main 302 215 POPP__________ WP081998 31.0420 136.488 65 1 30.8000 136.600 4 60 975 9 60 60 2 350 250 0 30.6622 136.953 3 58 980 30.7546 136.581 STS 55 975 20 8
1998253N17150 1998 60 WP MM STELLA 1998-09-15 12:00:00 TS 31.7750 136.950 60 975 tokyo main 210 164 OOOO__________ jtwc_wp WP081998 32.1000 136.900 65 1 31.6000 136.900 4 60 975 9 60 60 2 350 250 0 31.6000 137.100 3 58 980 31.8000 136.900 STS 55 975 21 18
1998253N17150 1998 60 WP MM STELLA 1998-09-15 15:00:00 TS 32.8043 137.435 60 975 tokyo main 157 80 POPP__________ WP081998 33.0931 137.547 65 1 32.7000 137.400 4 60 975 9 60 60 2 300 250 0 32.5620 137.389 3 58 977 32.8623 137.404 STS 57 970 23 23
1998253N17150 1998 60 WP MM STELLA 1998-09-15 18:00:00 MX 33.9250 138.050 60 970 tokyo main 78 34 OOOO__________ jtwc_wp WP081998 34.1000 138.300 65 1 34.0000 137.900 4 60 970 9 60 60 2 300 250 0 33.6000 137.900 9 58 975 34.0000 138.100 STS 60 965 24 25
1998253N17150 1998 60 WP MM STELLA 1998-09-15 19:00:00 MX 34.2737 138.266 60 965 tokyo main 34 9 POPP__________ WP081998 34.4205 138.502 65 1 34.4000 138.100 4 60 965 9 60 60 2 450 250 1 33.9061 138.111 9 57 975 34.3681 138.351 STS 60 965 23 29
1998253N17150 1998 60 WP MM STELLA 1998-09-15 21:00:00 MX 34.9447 138.728 60 965 tokyo main 9 0 POPP__________ WP081998 35.0860 138.898 65 1 35.0000 138.500 4 60 965 9 60 60 2 450 250 0 34.5553 138.611 9 56 975 35.1376 138.902 STS 60 965 27 32
1998253N17150 1998 60 WP MM STELLA 1998-09-16 00:00:00 MX 36.1750 139.725 55 970 tokyo main 0 0 OOOO__________ jtwc_wp WP081998 36.3000 139.600 65 1 36.0000 140.000 4 55 970 2 70 50 2 450 350 0 35.9000 139.500 9 54 975 36.5000 139.800 STS 60 965 35 25
1998253N17150 1998 60 WP MM STELLA 1998-09-16 03:00:00 MX 38.1427 140.576 55 970 tokyo main 0 0 POPP__________ WP081998 37.9243 140.460 62 0 38.2000 140.800 4 55 970 2 70 50 2 500 350 0 38.1510 140.380 9 51 975 38.2953 140.665 STS 57 967 44 21
1998253N17150 1998 60 WP MM STELLA 1998-09-16 06:00:00 MX 40.2500 141.675 55 970 tokyo main 0 0 OOOO__________ jtwc_wp WP081998 39.8000 141.800 60 0 40.5000 141.600 4 55 970 9 80 80 2 500 450 0 40.5000 141.600 9 48 975 40.2000 141.700 STS 55 970 44 29
1998253N17150 1998 60 WP MM STELLA 1998-09-16 09:00:00 MX 41.9879 143.388 50 975 tokyo main 8 8 POPP__________ WP081998 41.7725 143.754 60 0 42.1000 143.100 4 50 975 0 2 500 450 0 42.1683 143.570 9 48 977 41.8850 143.039 STS 52 972 43 40
1998253N17150 1998 60 WP MM STELLA 1998-09-16 11:00:00 MX 42.9749 144.757 50 975 tokyo main 8 0 POPP__________ WP081998 43.0314 145.494 60 0 42.9000 144.200 4 50 975 0 2 500 450 1 43.0282 144.924 9 48 979 42.9050 144.064 STS 50 974 41 45
1998253N17150 1998 60 WP MM STELLA 1998-09-16 12:00:00 ET 43.4545 145.364 976 tokyo main 13 0 OOOO__________ jtwc_wp WP081998 43.6000 146.500 60 0 43.4000 144.600 6 976 0 0 0 43.4000 145.500 9 48 980 43.4000 144.600 STS 50 975 35 46
1998253N17150 1998 60 WP MM STELLA 1998-09-16 15:00:00 ET 44.5971 147.045 main 0 0 PPP___________ WP081998 44.9801 150.011 60 0 44.5236 145.773 6 978 0 0 44.3612 146.622 9 41 980 STS 29 47
1998253N17150 1998 60 WP MM STELLA 1998-09-16 18:00:00 ET 45.4000 148.333 980 tokyo main 13 11 OOO___________ jtwc_wp WP081998 46.0000 154.000 60 0 45.3000 147.200 6 980 0 0 0 45.2000 147.200 9 34 980 21 47
1998253N17150 1998 60 WP MM STELLA 1998-09-16 21:00:00 ET 46.0057 149.202 main 37 22 _P____________ WP081998 -1 46.0057 149.202 6 982 0 0 9 26 60
1998253N17150 1998 60 WP MM STELLA 1998-09-17 00:00:00 ET 46.7000 151.600 984 tokyo main 113 113 _O____________ -1 46.7000 151.600 6 984 0 0 0 38 65
1998253N17150 1998 60 WP MM STELLA 1998-09-17 03:00:00 ET 47.6307 154.246 main 280 197 _P____________ -1 47.6307 154.246 6 984 0 0 40 64
1998253N17150 1998 60 WP MM STELLA 1998-09-17 06:00:00 ET 48.5000 157.000 984 tokyo main 202 202 _O____________ -1 48.5000 157.000 6 984 0 0 0 37 67
1998253N17150 1998 60 WP MM STELLA 1998-09-17 09:00:00 ET 49.1097 159.402 main 276 276 _P____________ -1 49.1097 159.402 6 984 0 0 34 73
1998253N17150 1998 60 WP MM STELLA 1998-09-17 12:00:00 ET 49.5000 162.000 984 tokyo main 370 370 _O____________ -1 49.5000 162.000 6 984 0 0 0 39 82
1998253N17150 1998 60 WP MM STELLA 1998-09-17 15:00:00 ET 49.6317 165.351 main 533 533 _P____________ -1 49.6317 165.351 6 982 0 0 44 89
1998253N17150 1998 60 WP MM STELLA 1998-09-17 18:00:00 ET 49.6000 168.800 980 tokyo main 714 714 _O____________ -1 49.6000 168.800 6 980 0 0 0 42 91
1998253N17150 1998 60 WP MM STELLA 1998-09-17 21:00:00 ET 49.5576 171.789 main 866 866 _P____________ -1 49.5576 171.789 6 979 0 0 37 90
1998253N17150 1998 60 WP MM STELLA 1998-09-18 00:00:00 ET 49.6000 174.600 978 tokyo main 1017 1011 _O____________ -1 49.6000 174.600 6 978 0 0 0 36 86
1998253N17150 1998 60 WP MM STELLA 1998-09-18 03:00:00 ET 49.8141 177.423 main 1005 817 _P____________ -1 49.8141 177.423 6 977 0 0 37 82
1998253N17150 1998 60 EP CP STELLA 1998-09-18 06:00:00 ET 50.1000 180.300 main 805 _O____________ -1 50.1000 180.300 6 976 0 0 0 37 81

デジタル台風データ・検索

IBTrACS Databaseについて

本データベースは、米国NOAAが公開する1842年以降の世界の熱帯低気圧のベストトラックデータアーカイブInternational Best Track Archive for Climate Stewardship (IBTrACS)を、ウェブで閲覧しやすい形式に変換したものです。

最終更新日:2021-10-08